Time;durP1;ratioP1;P1;durP2;ratioP2;P2;SDS_P1;SDS_P2;PMS_P1;PMS_P2;Temp;Humidity;BMP_temperature;BMP_pressure;BME280_temperature;BME280_humidity;BME280_pressure;Samples;Min_cycle;Max_cycle;Signal;HPM_P1;HPM_P2
2023/09/08 00:02:13;;;;;;;5.17;4.60;;;;;;;;;;5072068;28;20223;-55
2023/09/08 00:04:39;;;;;;;4.70;4.20;;;;;;;;;;5072189;28;20196;-55
2023/09/08 00:07:05;;;;;;;4.73;3.80;;;;;;;;;;5072020;28;20211;-55
2023/09/08 00:09:31;;;;;;;5.00;4.50;;;;;;;;;;5072036;28;20194;-55
2023/09/08 00:11:58;;;;;;;6.10;4.27;;;;;;;;;;5071910;28;20196;-56
2023/09/08 00:14:24;;;;;;;4.57;4.17;;;;;;;;;;5071596;28;20207;-55
2023/09/08 00:16:54;;;;;;;5.03;4.53;;;;;;;;;;5071659;28;20532;-55
2023/09/08 00:19:20;;;;;;;4.73;4.03;;;;;;;;;;5071908;28;20248;-55
2023/09/08 00:21:46;;;;;;;5.60;4.53;;;;;;;;;;5071736;28;20198;-54
2023/09/08 00:26:48;;;;;;;6.83;4.23;;;;;;;;;;5278068;23;20324;-57
2023/09/08 00:29:15;;;;;;;4.33;3.93;;;;;;;;;;4971310;28;20415;-58
2023/09/08 00:31:42;;;;;;;6.10;4.37;;;;;;;;;;4972955;28;20607;-55
2023/09/08 00:34:08;;;;;;;4.87;4.37;;;;;;;;;;4972894;28;20209;-54
2023/09/08 00:36:34;;;;;;;5.47;4.60;;;;;;;;;;4972868;28;20203;-53
2023/09/08 00:39:00;;;;;;;4.80;4.20;;;;;;;;;;4972735;28;20653;-53
2023/09/08 00:41:26;;;;;;;6.47;4.67;;;;;;;;;;4972582;28;20225;-56
2023/09/08 00:43:52;;;;;;;4.60;4.13;;;;;;;;;;4972933;28;20281;-56
2023/09/08 00:46:19;;;;;;;5.03;4.13;;;;;;;;;;4972716;28;20195;-56
2023/09/08 00:48:46;;;;;;;4.80;3.90;;;;;;;;;;4972654;28;20716;-56
2023/09/08 00:51:12;;;;;;;5.10;4.50;;;;;;;;;;4972593;28;20407;-55
2023/09/08 00:53:38;;;;;;;4.60;4.10;;;;;;;;;;4972505;28;20623;-55
2023/09/08 00:56:05;;;;;;;6.10;4.33;;;;;;;;;;4972603;28;20214;-55
2023/09/08 00:58:31;;;;;;;4.67;4.27;;;;;;;;;;4972401;28;20273;-55
2023/09/08 01:00:58;;;;;;;5.30;4.27;;;;;;;;;;4972397;28;20222;-54
2023/09/08 01:03:25;;;;;;;5.20;4.20;;;;;;;;;;4972384;28;20209;-55
2023/09/08 01:05:52;;;;;;;7.07;4.60;;;;;;;;;;4972642;28;20234;-54
2023/09/08 01:08:18;;;;;;;6.40;4.57;;;;;;;;;;4972661;28;20226;-54
2023/09/08 01:10:45;;;;;;;7.10;4.53;;;;;;;;;;4972351;28;20571;-54
2023/09/08 01:13:11;;;;;;;5.37;4.00;;;;;;;;;;4971339;28;20198;-54
2023/09/08 01:15:37;;;;;;;7.03;3.93;;;;;;;;;;4972272;28;20241;-54
2023/09/08 01:18:04;;;;;;;7.77;4.67;;;;;;;;;;4972489;28;20198;-55
2023/09/08 01:20:49;;;;;;;5.23;4.20;;;;;;;;;;4972556;28;20233;-55
2023/09/08 01:23:19;;;;;;;5.13;4.63;;;;;;;;;;4972170;28;20290;-54
2023/09/08 01:25:50;;;;;;;5.33;4.50;;;;;;;;;;4971898;28;20222;-53
2023/09/08 01:28:17;;;;;;;5.90;4.30;;;;;;;;;;4971910;28;20281;-55
2023/09/08 01:30:43;;;;;;;4.93;4.33;;;;;;;;;;4971965;28;20278;-54
2023/09/08 01:33:10;;;;;;;5.10;4.43;;;;;;;;;;4972047;28;20203;-55
2023/09/08 01:35:36;;;;;;;4.50;4.10;;;;;;;;;;4972065;28;20265;-54
2023/09/08 01:38:02;;;;;;;7.57;4.60;;;;;;;;;;4972008;28;20195;-55
2023/09/08 01:40:28;;;;;;;4.67;4.27;;;;;;;;;;4971822;28;20199;-53
2023/09/08 01:42:55;;;;;;;5.97;4.37;;;;;;;;;;4972032;28;20257;-54
2023/09/08 01:45:21;;;;;;;4.73;4.33;;;;;;;;;;4972040;28;20202;-55
2023/09/08 01:47:47;;;;;;;5.67;4.97;;;;;;;;;;4971791;28;20691;-54
2023/09/08 01:50:15;;;;;;;5.20;4.70;;;;;;;;;;4971842;28;20665;-54
2023/09/08 01:52:41;;;;;;;6.00;4.70;;;;;;;;;;4971876;28;20229;-55
2023/09/08 01:55:07;;;;;;;7.87;4.50;;;;;;;;;;4972034;28;20234;-54
2023/09/08 01:57:33;;;;;;;6.33;4.60;;;;;;;;;;4971930;28;20203;-54
2023/09/08 02:00:01;;;;;;;6.20;5.03;;;;;;;;;;4971916;28;20223;-54
2023/09/08 02:02:27;;;;;;;7.20;4.30;;;;;;;;;;4971657;28;20198;-57
2023/09/08 02:04:53;;;;;;;6.03;4.73;;;;;;;;;;4972100;28;20207;-56
2023/09/08 02:07:19;;;;;;;4.87;4.47;;;;;;;;;;4971812;28;20221;-54
2023/09/08 02:09:45;;;;;;;4.80;4.30;;;;;;;;;;4971454;28;20289;-55
2023/09/08 02:12:11;;;;;;;5.20;4.43;;;;;;;;;;4971678;28;20218;-55
2023/09/08 02:14:37;;;;;;;4.97;4.30;;;;;;;;;;4971783;28;20260;-55
2023/09/08 02:17:06;;;;;;;6.33;4.67;;;;;;;;;;4971855;28;20222;-55
2023/09/08 02:19:32;;;;;;;5.23;4.73;;;;;;;;;;4971808;28;20199;-55
2023/09/08 02:21:58;;;;;;;5.40;4.77;;;;;;;;;;4971847;28;20289;-55
2023/09/08 02:24:24;;;;;;;5.70;4.27;;;;;;;;;;4973530;28;20294;-55
2023/09/08 02:26:50;;;;;;;5.17;4.67;;;;;;;;;;4975480;28;20242;-55
2023/09/08 02:29:16;;;;;;;8.20;5.00;;;;;;;;;;4975199;28;20735;-55
2023/09/08 02:31:42;;;;;;;5.47;4.53;;;;;;;;;;4975045;28;20505;-55
2023/09/08 02:34:11;;;;;;;5.47;4.80;;;;;;;;;;4975262;28;20229;-55
2023/09/08 02:36:37;;;;;;;5.93;4.97;;;;;;;;;;4975120;28;20289;-55
2023/09/08 02:39:03;;;;;;;6.53;5.47;;;;;;;;;;4975130;28;20202;-55
2023/09/08 02:41:29;;;;;;;5.37;4.50;;;;;;;;;;4974944;28;20623;-55
2023/09/08 02:43:55;;;;;;;5.57;4.70;;;;;;;;;;4974977;28;20199;-55
2023/09/08 02:46:21;;;;;;;6.10;4.50;;;;;;;;;;4975111;28;20203;-55
2023/09/08 02:48:47;;;;;;;7.50;4.20;;;;;;;;;;4974748;28;20790;-55
2023/09/08 02:51:14;;;;;;;7.50;4.50;;;;;;;;;;4974785;28;20201;-55
2023/09/08 02:53:40;;;;;;;8.07;4.30;;;;;;;;;;4974579;28;20296;-55
2023/09/08 02:56:06;;;;;;;7.53;5.00;;;;;;;;;;4975202;28;20206;-55
2023/09/08 02:58:33;;;;;;;4.77;4.37;;;;;;;;;;4974672;28;20191;-55
2023/09/08 03:01:09;;;;;;;7.67;5.17;;;;;;;;;;4974675;28;20202;-55
2023/09/08 03:03:35;;;;;;;7.30;5.33;;;;;;;;;;4974936;28;20410;-55
2023/09/08 03:06:03;;;;;;;5.50;5.00;;;;;;;;;;4974444;28;20210;-55
2023/09/08 03:08:30;;;;;;;5.20;4.70;;;;;;;;;;4974390;28;20296;-55
2023/09/08 03:10:57;;;;;;;6.23;4.47;;;;;;;;;;4974410;28;20206;-56
2023/09/08 03:13:23;;;;;;;6.37;4.67;;;;;;;;;;4974447;28;20664;-55
2023/09/08 03:15:49;;;;;;;5.43;4.93;;;;;;;;;;4974380;28;20556;-55
2023/09/08 03:18:15;;;;;;;5.63;5.00;;;;;;;;;;4974366;28;20209;-55
2023/09/08 03:20:41;;;;;;;7.00;4.70;;;;;;;;;;4974159;28;20203;-56
2023/09/08 03:23:07;;;;;;;5.43;4.93;;;;;;;;;;4974368;28;20210;-55
2023/09/08 03:25:34;;;;;;;5.37;4.80;;;;;;;;;;4974071;28;20581;-55
2023/09/08 03:28:00;;;;;;;6.33;4.87;;;;;;;;;;4973775;28;20241;-55
2023/09/08 03:30:26;;;;;;;6.20;5.37;;;;;;;;;;4973986;28;20201;-55
2023/09/08 03:32:52;;;;;;;6.10;5.40;;;;;;;;;;4974190;28;20212;-55
2023/09/08 03:35:18;;;;;;;7.97;6.20;;;;;;;;;;4973290;28;20210;-55
2023/09/08 03:37:44;;;;;;;7.67;5.30;;;;;;;;;;4974039;28;20202;-55
2023/09/08 03:40:11;;;;;;;5.93;5.30;;;;;;;;;;4973860;28;20210;-55
2023/09/08 03:42:38;;;;;;;5.87;5.00;;;;;;;;;;4973887;28;20201;-55
2023/09/08 03:45:05;;;;;;;6.80;5.10;;;;;;;;;;4973904;28;20260;-55
2023/09/08 03:47:31;;;;;;;9.00;5.40;;;;;;;;;;4973410;28;20256;-56
2023/09/08 03:49:57;;;;;;;7.03;5.00;;;;;;;;;;4973632;28;20237;-55
2023/09/08 03:52:23;;;;;;;5.63;5.00;;;;;;;;;;4973776;28;20292;-55
2023/09/08 03:54:49;;;;;;;9.20;5.50;;;;;;;;;;4973610;28;20657;-55
2023/09/08 03:57:15;;;;;;;8.47;5.63;;;;;;;;;;4973599;28;20211;-55
2023/09/08 03:59:42;;;;;;;5.63;5.00;;;;;;;;;;4973408;28;20211;-54
2023/09/08 04:02:08;;;;;;;6.30;5.30;;;;;;;;;;4973552;28;20283;-55
2023/09/08 04:04:34;;;;;;;7.83;6.10;;;;;;;;;;4973836;28;20195;-54
2023/09/08 04:07:00;;;;;;;8.03;5.83;;;;;;;;;;4973294;28;20610;-55
2023/09/08 04:09:28;;;;;;;5.50;5.00;;;;;;;;;;4973233;28;20205;-54
2023/09/08 04:11:54;;;;;;;6.27;5.67;;;;;;;;;;4973225;28;20235;-54
2023/09/08 04:14:21;;;;;;;7.53;5.20;;;;;;;;;;4973418;28;20200;-54
2023/09/08 04:16:48;;;;;;;6.77;5.30;;;;;;;;;;4973114;28;20227;-54
2023/09/08 04:19:14;;;;;;;5.80;5.20;;;;;;;;;;4973086;28;20254;-54
2023/09/08 04:21:41;;;;;;;5.73;5.23;;;;;;;;;;4973030;28;20204;-55
2023/09/08 04:24:10;;;;;;;7.00;5.23;;;;;;;;;;4973187;28;20204;-56
2023/09/08 04:26:36;;;;;;;6.10;5.10;;;;;;;;;;4972863;28;20223;-55
2023/09/08 04:29:02;;;;;;;5.90;5.27;;;;;;;;;;4973141;28;20238;-55
2023/09/08 04:31:28;;;;;;;6.17;5.53;;;;;;;;;;4972905;28;20283;-54
2023/09/08 04:33:55;;;;;;;9.80;5.60;;;;;;;;;;4973015;28;20633;-55
2023/09/08 04:36:21;;;;;;;7.47;5.60;;;;;;;;;;4973063;28;20209;-54
2023/09/08 04:38:47;;;;;;;6.50;5.83;;;;;;;;;;4972735;28;20187;-54
2023/09/08 04:41:13;;;;;;;7.40;6.23;;;;;;;;;;4972652;28;20243;-56
2023/09/08 04:43:39;;;;;;;6.47;5.40;;;;;;;;;;4972624;28;20265;-56
2023/09/08 04:46:05;;;;;;;5.67;4.90;;;;;;;;;;4972354;28;20210;-55
2023/09/08 04:48:31;;;;;;;6.40;5.70;;;;;;;;;;4971109;28;20326;-55
2023/09/08 04:50:59;;;;;;;6.77;5.37;;;;;;;;;;4972500;28;20201;-56
2023/09/08 04:53:24;;;;;;;6.63;5.90;;;;;;;;;;4972500;28;20213;-55
2023/09/08 04:55:54;;;;;;;6.90;5.90;;;;;;;;;;4972419;28;20195;-56
2023/09/08 04:58:20;;;;;;;6.10;5.60;;;;;;;;;;4972681;28;20290;-55
2023/09/08 05:00:46;;;;;;;6.27;5.30;;;;;;;;;;4972517;28;20223;-56
2023/09/08 05:03:12;;;;;;;7.00;5.47;;;;;;;;;;4972435;28;20208;-55
2023/09/08 05:05:39;;;;;;;6.87;5.40;;;;;;;;;;4972458;28;20678;-56
2023/09/08 05:08:06;;;;;;;6.33;5.73;;;;;;;;;;4972510;28;20232;-54
2023/09/08 05:10:32;;;;;;;6.17;5.57;;;;;;;;;;4972087;28;20207;-55
2023/09/08 05:12:58;;;;;;;5.80;5.20;;;;;;;;;;4972038;28;20203;-56
2023/09/08 05:18:28;;;;;;;6.30;5.70;;;;;;;;;;4972254;28;20203;-56
2023/09/08 05:20:54;;;;;;;6.30;5.70;;;;;;;;;;4972072;28;20205;-55
2023/09/08 05:23:21;;;;;;;6.70;6.10;;;;;;;;;;4972358;28;20199;-55
2023/09/08 05:25:47;;;;;;;6.57;5.70;;;;;;;;;;4971992;28;20590;-55
2023/09/08 05:28:13;;;;;;;6.97;6.17;;;;;;;;;;4971908;28;20235;-54
2023/09/08 05:30:39;;;;;;;7.43;6.70;;;;;;;;;;4971827;28;20291;-56
2023/09/08 05:33:06;;;;;;;6.93;5.90;;;;;;;;;;4972119;28;20290;-56
2023/09/08 05:35:33;;;;;;;7.70;6.13;;;;;;;;;;4971988;28;20208;-56
2023/09/08 05:37:58;;;;;;;8.53;6.67;;;;;;;;;;4971909;28;20196;-55
2023/09/08 05:40:26;;;;;;;7.77;7.07;;;;;;;;;;4971845;28;20213;-55
2023/09/08 05:42:53;;;;;;;6.63;5.93;;;;;;;;;;4971946;28;20210;-55
2023/09/08 05:45:19;;;;;;;6.93;6.23;;;;;;;;;;4972225;28;20199;-55
2023/09/08 05:47:45;;;;;;;7.47;5.83;;;;;;;;;;4971698;28;20278;-55
2023/09/08 05:50:11;;;;;;;6.97;5.80;;;;;;;;;;4971970;28;20195;-55
2023/09/08 05:52:37;;;;;;;6.60;5.90;;;;;;;;;;4972250;28;20204;-55
2023/09/08 05:55:03;;;;;;;6.20;5.60;;;;;;;;;;4971818;28;20597;-55
2023/09/08 05:57:30;;;;;;;7.37;5.33;;;;;;;;;;4972016;28;20216;-55
2023/09/08 05:59:56;;;;;;;6.10;5.53;;;;;;;;;;4974860;28;20291;-55
2023/09/08 06:02:22;;;;;;;6.47;5.83;;;;;;;;;;4975681;28;20643;-55
2023/09/08 06:04:48;;;;;;;6.77;6.07;;;;;;;;;;4975623;28;20209;-55
2023/09/08 06:07:14;;;;;;;6.73;5.90;;;;;;;;;;4975546;28;20211;-55
2023/09/08 06:09:41;;;;;;;7.57;6.47;;;;;;;;;;4975381;28;20671;-55
2023/09/08 06:12:07;;;;;;;8.13;5.93;;;;;;;;;;4975575;28;20197;-55
2023/09/08 06:14:34;;;;;;;6.53;5.80;;;;;;;;;;4975742;28;20683;-55
2023/09/08 06:17:00;;;;;;;11.00;6.60;;;;;;;;;;4975264;28;20209;-54
2023/09/08 06:19:26;;;;;;;9.93;6.43;;;;;;;;;;4975294;28;20299;-55
2023/09/08 06:21:52;;;;;;;8.83;6.53;;;;;;;;;;4975491;28;20221;-55
2023/09/08 06:24:18;;;;;;;8.10;5.63;;;;;;;;;;4975187;28;20264;-55
2023/09/08 06:26:44;;;;;;;9.23;6.43;;;;;;;;;;4974933;28;20251;-55
2023/09/08 06:29:10;;;;;;;6.93;6.23;;;;;;;;;;4974928;28;20636;-56
2023/09/08 06:31:38;;;;;;;8.37;5.73;;;;;;;;;;4975209;28;20696;-54
2023/09/08 06:34:04;;;;;;;9.73;5.80;;;;;;;;;;4975270;28;20210;-55
2023/09/08 06:36:30;;;;;;;9.33;5.60;;;;;;;;;;4974948;28;20216;-55
2023/09/08 06:38:56;;;;;;;7.57;5.50;;;;;;;;;;4974813;28;20202;-55
2023/09/08 06:41:23;;;;;;;7.50;6.10;;;;;;;;;;4975077;28;20202;-54
2023/09/08 06:43:49;;;;;;;8.20;5.80;;;;;;;;;;4975014;28;20199;-55
2023/09/08 06:46:16;;;;;;;6.93;5.07;;;;;;;;;;4975064;28;20206;-55
2023/09/08 06:48:44;;;;;;;6.07;5.10;;;;;;;;;;4974688;28;20227;-56
2023/09/08 06:51:10;;;;;;;6.50;5.20;;;;;;;;;;4974763;28;20210;-56
2023/09/08 06:53:36;;;;;;;7.37;5.53;;;;;;;;;;4975020;28;20209;-55
2023/09/08 06:56:02;;;;;;;6.07;5.13;;;;;;;;;;4974886;28;20201;-55
2023/09/08 06:58:28;;;;;;;5.13;4.60;;;;;;;;;;4974621;28;20601;-55
2023/09/08 07:00:55;;;;;;;5.20;4.70;;;;;;;;;;4974498;28;20202;-59
2023/09/08 07:03:22;;;;;;;7.13;5.27;;;;;;;;;;4974737;28;20549;-55
2023/09/08 07:05:50;;;;;;;5.50;4.33;;;;;;;;;;4974617;28;20708;-57
2023/09/08 07:08:16;;;;;;;5.60;4.80;;;;;;;;;;4973992;28;20693;-55
2023/09/08 07:10:42;;;;;;;9.60;5.20;;;;;;;;;;4974371;28;20345;-56
2023/09/08 07:13:08;;;;;;;6.37;4.73;;;;;;;;;;4974496;28;20257;-55
2023/09/08 07:15:34;;;;;;;5.23;4.33;;;;;;;;;;4974507;28;20257;-55
2023/09/08 07:18:00;;;;;;;6.10;4.57;;;;;;;;;;4974052;28;20192;-56
2023/09/08 07:20:26;;;;;;;6.60;4.90;;;;;;;;;;4968318;28;20198;-57
2023/09/08 07:22:54;;;;;;;6.37;4.93;;;;;;;;;;4986546;28;20256;-56
2023/09/08 07:25:20;;;;;;;6.33;4.90;;;;;;;;;;4993630;28;20742;-57
2023/09/08 07:27:46;;;;;;;6.47;4.57;;;;;;;;;;4992942;28;20252;-57
2023/09/08 07:30:12;;;;;;;5.70;4.97;;;;;;;;;;4993534;28;20798;-57
2023/09/08 07:32:39;;;;;;;5.60;4.93;;;;;;;;;;4993463;28;20204;-58
2023/09/08 07:35:05;;;;;;;7.37;4.47;;;;;;;;;;4993419;28;20334;-57
2023/09/08 07:37:31;;;;;;;6.53;5.37;;;;;;;;;;4993311;28;20198;-57
2023/09/08 07:39:58;;;;;;;4.97;4.47;;;;;;;;;;4992657;28;20596;-57
2023/09/08 07:42:25;;;;;;;9.23;5.23;;;;;;;;;;4993202;28;20199;-58
2023/09/08 07:44:51;;;;;;;8.60;5.30;;;;;;;;;;4992909;28;20198;-58
2023/09/08 07:47:17;;;;;;;5.30;4.80;;;;;;;;;;4991066;28;20280;-58
2023/09/08 07:49:45;;;;;;;6.00;4.43;;;;;;;;;;4991201;28;20262;-57
2023/09/08 07:52:11;;;;;;;7.43;5.63;;;;;;;;;;4993153;28;20229;-57
2023/09/08 07:54:37;;;;;;;6.70;6.00;;;;;;;;;;4993323;28;20669;-56
2023/09/08 07:57:05;;;;;;;6.30;5.33;;;;;;;;;;4993058;28;20233;-54
2023/09/08 07:59:31;;;;;;;6.83;4.80;;;;;;;;;;4993312;28;20211;-55
2023/09/08 08:01:57;;;;;;;6.20;5.60;;;;;;;;;;4993254;28;20208;-55
2023/09/08 08:04:23;;;;;;;7.80;5.63;;;;;;;;;;4993331;28;20231;-55
2023/09/08 08:06:49;;;;;;;6.20;4.87;;;;;;;;;;4993263;28;20255;-55
2023/09/08 08:09:15;;;;;;;6.17;4.70;;;;;;;;;;4993006;28;20245;-55
2023/09/08 08:11:41;;;;;;;7.23;4.40;;;;;;;;;;4992994;28;20204;-55
2023/09/08 08:14:09;;;;;;;10.63;4.60;;;;;;;;;;4993073;28;20263;-55
2023/09/08 08:16:35;;;;;;;6.63;4.43;;;;;;;;;;4993253;28;20296;-55
2023/09/08 08:19:01;;;;;;;7.17;3.87;;;;;;;;;;4992721;28;20212;-55
2023/09/08 08:21:27;;;;;;;5.63;4.43;;;;;;;;;;4992462;28;20210;-55
2023/09/08 08:23:53;;;;;;;6.70;5.23;;;;;;;;;;4992747;28;20198;-55
2023/09/08 08:26:19;;;;;;;8.27;4.63;;;;;;;;;;4992979;28;20217;-55
2023/09/08 08:28:45;;;;;;;4.67;4.17;;;;;;;;;;4992536;28;20230;-56
2023/09/08 08:31:13;;;;;;;6.40;4.07;;;;;;;;;;4992584;28;20207;-55
2023/09/08 08:33:39;;;;;;;6.53;4.20;;;;;;;;;;4992624;28;20217;-56
2023/09/08 08:36:07;;;;;;;4.73;3.90;;;;;;;;;;4992748;28;20211;-55
2023/09/08 08:38:33;;;;;;;5.50;5.00;;;;;;;;;;4992575;28;20204;-55
2023/09/08 08:41:03;;;;;;;5.77;4.37;;;;;;;;;;4992423;28;20208;-54
2023/09/08 08:43:29;;;;;;;8.03;4.10;;;;;;;;;;4992338;28;20211;-58
2023/09/08 08:45:57;;;;;;;9.03;5.50;;;;;;;;;;4991911;28;20212;-57
2023/09/08 08:48:26;;;;;;;6.13;4.70;;;;;;;;;;4992008;28;20225;-59
2023/09/08 08:50:52;;;;;;;5.17;4.43;;;;;;;;;;4992064;28;20204;-56
2023/09/08 08:53:21;;;;;;;5.60;4.20;;;;;;;;;;4992164;28;20272;-54
2023/09/08 08:55:47;;;;;;;5.00;4.23;;;;;;;;;;4991968;28;20196;-57
2023/09/08 08:58:14;;;;;;;4.37;3.90;;;;;;;;;;4991678;28;20629;-57
2023/09/08 09:00:40;;;;;;;5.20;4.70;;;;;;;;;;4991775;28;20205;-55
2023/09/08 09:03:07;;;;;;;4.60;4.20;;;;;;;;;;4991832;28;20221;-55
2023/09/08 09:05:37;;;;;;;6.73;3.70;;;;;;;;;;4991851;28;20232;-56
2023/09/08 09:08:03;;;;;;;4.47;4.07;;;;;;;;;;4991540;28;20707;-55
2023/09/08 09:10:30;;;;;;;5.97;4.23;;;;;;;;;;4991724;28;20284;-58
2023/09/08 09:12:56;;;;;;;4.33;3.93;;;;;;;;;;4991588;28;20226;-58
2023/09/08 09:15:28;;;;;;;5.40;3.90;;;;;;;;;;4992021;28;20678;-58
2023/09/08 09:18:03;;;;;;;6.87;4.00;;;;;;;;;;4991800;28;20200;-59
2023/09/08 09:20:29;;;;;;;7.70;4.30;;;;;;;;;;4991859;28;20207;-56
2023/09/08 09:22:56;;;;;;;5.77;4.30;;;;;;;;;;4991782;28;20202;-57
2023/09/08 09:25:23;;;;;;;7.10;3.87;;;;;;;;;;4990036;28;20226;-57
2023/09/08 09:27:51;;;;;;;5.93;4.20;;;;;;;;;;4991225;28;22532;-59
2023/09/08 09:30:18;;;;;;;4.57;4.00;;;;;;;;;;4991447;28;20229;-59
2023/09/08 09:32:44;;;;;;;6.60;4.13;;;;;;;;;;4991019;28;20622;-59
2023/09/08 09:35:10;;;;;;;5.30;3.50;;;;;;;;;;4994840;28;20620;-59
2023/09/08 09:37:37;;;;;;;4.43;3.80;;;;;;;;;;4995455;28;20561;-59
2023/09/08 09:40:07;;;;;;;4.30;3.90;;;;;;;;;;4995205;28;20196;-58
2023/09/08 09:42:33;;;;;;;7.03;4.13;;;;;;;;;;4995494;28;20204;-58
2023/09/08 09:45:01;;;;;;;4.53;3.40;;;;;;;;;;4994756;28;20197;-59
2023/09/08 09:47:27;;;;;;;5.00;4.20;;;;;;;;;;4995031;28;20700;-57
2023/09/08 09:49:53;;;;;;;6.93;3.50;;;;;;;;;;4994777;28;20235;-57
2023/09/08 09:52:25;;;;;;;4.87;3.60;;;;;;;;;;4995537;28;20202;-57
2023/09/08 09:54:54;;;;;;;5.00;3.73;;;;;;;;;;4995222;28;20664;-58
2023/09/08 09:57:23;;;;;;;4.50;3.47;;;;;;;;;;4995453;28;20326;-58
2023/09/08 09:59:50;;;;;;;5.00;3.73;;;;;;;;;;4995213;28;20195;-59
2023/09/08 10:02:19;;;;;;;5.33;4.00;;;;;;;;;;4995433;28;20207;-59
2023/09/08 10:04:45;;;;;;;6.23;3.47;;;;;;;;;;4995366;28;20636;-59
2023/09/08 10:07:11;;;;;;;6.43;3.80;;;;;;;;;;4995261;28;20725;-59
2023/09/08 10:09:38;;;;;;;4.10;3.60;;;;;;;;;;4995152;28;20235;-59
2023/09/08 10:12:04;;;;;;;5.63;4.10;;;;;;;;;;4995292;28;20208;-59
2023/09/08 10:14:32;;;;;;;7.37;4.80;;;;;;;;;;4995291;28;20219;-59
2023/09/08 10:17:00;;;;;;;4.97;3.40;;;;;;;;;;4995019;28;20348;-59
2023/09/08 10:19:26;;;;;;;3.83;3.53;;;;;;;;;;4995251;28;20189;-59
2023/09/08 10:21:55;;;;;;;3.90;3.10;;;;;;;;;;4995160;28;20219;-59
2023/09/08 10:24:23;;;;;;;4.00;3.70;;;;;;;;;;4995194;28;20236;-59
2023/09/08 10:26:55;;;;;;;4.63;3.40;;;;;;;;;;4994837;28;20271;-59
2023/09/08 10:29:21;;;;;;;5.23;3.40;;;;;;;;;;4995042;28;20236;-59
2023/09/08 10:31:48;;;;;;;3.67;3.37;;;;;;;;;;4994986;28;20202;-59
2023/09/08 10:34:15;;;;;;;5.10;3.27;;;;;;;;;;4994924;28;20263;-58
2023/09/08 10:36:41;;;;;;;4.03;3.00;;;;;;;;;;4994779;28;20210;-58
2023/09/08 10:39:26;;;;;;;5.37;3.63;;;;;;;;;;4994781;28;20199;-58
2023/09/08 10:42:12;;;;;;;4.33;3.50;;;;;;;;;;4994764;28;20199;-58
2023/09/08 10:44:39;;;;;;;3.30;3.00;;;;;;;;;;4994104;28;20678;-58
2023/09/08 10:47:06;;;;;;;5.07;3.10;;;;;;;;;;4994569;28;20201;-59
2023/09/08 10:49:35;;;;;;;4.00;2.90;;;;;;;;;;4994388;28;20264;-58
2023/09/08 10:52:08;;;;;;;4.37;3.07;;;;;;;;;;4994123;28;20194;-58
2023/09/08 10:54:43;;;;;;;2.87;2.67;;;;;;;;;;4994602;28;20199;-58
2023/09/08 10:57:13;;;;;;;3.40;3.10;;;;;;;;;;4994199;28;20271;-58
2023/09/08 10:59:40;;;;;;;3.23;2.90;;;;;;;;;;4994335;28;20719;-58
2023/09/08 11:02:08;;;;;;;5.37;3.10;;;;;;;;;;4994403;28;20663;-58
2023/09/08 11:04:37;;;;;;;3.30;2.93;;;;;;;;;;4994460;28;20208;-58
2023/09/08 11:07:03;;;;;;;5.27;2.93;;;;;;;;;;4994324;28;20200;-58
2023/09/08 11:09:29;;;;;;;3.90;3.50;;;;;;;;;;4994206;28;20225;-58
2023/09/08 11:11:56;;;;;;;3.67;3.37;;;;;;;;;;4994096;28;20205;-59
2023/09/08 11:14:23;;;;;;;3.70;2.80;;;;;;;;;;4994312;28;20208;-58
2023/09/08 11:16:49;;;;;;;3.73;2.60;;;;;;;;;;4994255;28;20236;-58
2023/09/08 11:19:16;;;;;;;4.70;3.10;;;;;;;;;;4993992;28;20196;-58
2023/09/08 11:21:42;;;;;;;6.93;3.13;;;;;;;;;;4994037;28;20284;-58
2023/09/08 11:24:09;;;;;;;4.33;3.20;;;;;;;;;;4993802;28;20200;-58
2023/09/08 11:26:35;;;;;;;6.20;3.50;;;;;;;;;;4993934;28;20596;-58
2023/09/08 11:29:01;;;;;;;6.27;3.10;;;;;;;;;;4993894;28;20256;-58
2023/09/08 11:31:27;;;;;;;3.07;2.77;;;;;;;;;;4993652;28;20249;-58
2023/09/08 11:33:55;;;;;;;5.23;3.23;;;;;;;;;;4993784;28;20290;-60
2023/09/08 11:36:22;;;;;;;3.03;2.63;;;;;;;;;;4993992;28;20201;-58
2023/09/08 11:38:49;;;;;;;3.40;2.93;;;;;;;;;;4993723;28;20638;-58
2023/09/08 11:41:15;;;;;;;5.13;2.93;;;;;;;;;;4993630;28;20287;-59
2023/09/08 11:43:41;;;;;;;3.60;2.60;;;;;;;;;;4993559;28;20287;-58
2023/09/08 11:46:07;;;;;;;6.33;3.30;;;;;;;;;;4993601;28;20220;-58
2023/09/08 11:48:33;;;;;;;5.33;3.10;;;;;;;;;;4993594;28;20584;-59
2023/09/08 11:50:59;;;;;;;4.53;2.97;;;;;;;;;;4993416;28;20200;-57
2023/09/08 11:53:27;;;;;;;3.67;3.07;;;;;;;;;;4993241;28;20263;-57
2023/09/08 11:55:53;;;;;;;3.03;2.73;;;;;;;;;;4992808;28;20208;-58
2023/09/08 11:58:20;;;;;;;5.77;3.10;;;;;;;;;;4993346;28;20234;-57
2023/09/08 12:00:49;;;;;;;5.33;3.13;;;;;;;;;;4993207;28;20200;-58
2023/09/08 12:03:16;;;;;;;5.83;3.70;;;;;;;;;;4993230;28;20203;-59
2023/09/08 12:05:42;;;;;;;5.80;3.23;;;;;;;;;;4993208;28;20200;-58
2023/09/08 12:08:08;;;;;;;4.63;3.17;;;;;;;;;;4992978;28;20227;-58
2023/09/08 12:10:42;;;;;;;5.87;3.20;;;;;;;;;;4993255;28;20212;-59
2023/09/08 12:13:08;;;;;;;3.20;2.90;;;;;;;;;;4993208;28;20256;-59
2023/09/08 12:15:35;;;;;;;6.20;3.30;;;;;;;;;;4992943;28;20624;-59
2023/09/08 12:18:01;;;;;;;5.00;2.87;;;;;;;;;;4992889;28;20280;-59
2023/09/08 12:20:28;;;;;;;4.43;3.13;;;;;;;;;;4992829;28;20204;-59
2023/09/08 12:22:54;;;;;;;3.43;2.70;;;;;;;;;;4992742;28;20205;-59
2023/09/08 12:25:20;;;;;;;4.63;3.13;;;;;;;;;;4992890;28;20643;-58
2023/09/08 12:27:51;;;;;;;3.70;3.37;;;;;;;;;;4992342;28;20237;-59
2023/09/08 12:30:18;;;;;;;5.47;3.20;;;;;;;;;;4992940;28;20239;-58
2023/09/08 12:32:46;;;;;;;4.00;3.57;;;;;;;;;;4992699;28;20263;-58
2023/09/08 12:35:12;;;;;;;3.37;2.97;;;;;;;;;;4992593;28;20202;-59
2023/09/08 12:37:39;;;;;;;3.30;3.00;;;;;;;;;;4992484;28;20198;-59
2023/09/08 12:40:05;;;;;;;4.90;3.57;;;;;;;;;;4992644;28;20770;-58
2023/09/08 12:42:31;;;;;;;3.90;3.53;;;;;;;;;;4992594;28;20292;-58
2023/09/08 12:44:59;;;;;;;4.57;3.17;;;;;;;;;;4992416;28;20202;-59
2023/09/08 12:47:26;;;;;;;5.63;3.20;;;;;;;;;;4992496;28;20221;-58
2023/09/08 12:49:55;;;;;;;5.53;3.17;;;;;;;;;;4992364;28;20677;-59
2023/09/08 12:52:21;;;;;;;5.90;3.17;;;;;;;;;;4992628;28;20282;-57
2023/09/08 12:54:47;;;;;;;3.47;3.07;;;;;;;;;;4992287;28;20197;-57
2023/09/08 12:57:13;;;;;;;3.50;3.07;;;;;;;;;;4992232;28;20543;-59
2023/09/08 12:59:39;;;;;;;3.00;2.80;;;;;;;;;;4992332;28;20212;-58
2023/09/08 13:02:06;;;;;;;5.10;3.20;;;;;;;;;;4992309;28;20197;-58
2023/09/08 13:04:32;;;;;;;3.50;3.00;;;;;;;;;;4992144;28;20207;-58
2023/09/08 13:07:01;;;;;;;5.50;3.10;;;;;;;;;;4991956;28;20291;-58
2023/09/08 13:09:27;;;;;;;4.97;3.00;;;;;;;;;;4990154;28;20335;-58
2023/09/08 13:11:53;;;;;;;3.20;2.83;;;;;;;;;;4991985;28;20208;-58
2023/09/08 13:14:19;;;;;;;4.67;2.90;;;;;;;;;;4992054;28;20232;-58
2023/09/08 13:16:45;;;;;;;5.60;3.10;;;;;;;;;;4991995;28;20201;-58
2023/09/08 13:19:12;;;;;;;6.03;3.07;;;;;;;;;;4991770;28;20189;-57
2023/09/08 13:21:38;;;;;;;5.70;3.50;;;;;;;;;;4991685;28;20216;-58
2023/09/08 13:24:06;;;;;;;3.23;2.80;;;;;;;;;;4991815;28;20198;-57
2023/09/08 13:26:32;;;;;;;5.03;3.43;;;;;;;;;;4991793;28;20219;-57
2023/09/08 13:28:58;;;;;;;3.20;2.90;;;;;;;;;;4991725;28;20217;-58
2023/09/08 13:31:24;;;;;;;7.93;3.90;;;;;;;;;;4991812;28;20547;-58
2023/09/08 13:33:50;;;;;;;3.60;3.30;;;;;;;;;;4966889;28;20206;-57
2023/09/08 13:36:18;;;;;;;3.97;2.90;;;;;;;;;;4972162;28;20628;-57
2023/09/08 13:38:44;;;;;;;6.13;3.00;;;;;;;;;;4971631;28;20209;-58
2023/09/08 13:41:10;;;;;;;4.93;2.83;;;;;;;;;;4972220;28;20206;-58
2023/09/08 13:43:36;;;;;;;4.30;2.70;;;;;;;;;;4972297;28;20281;-58
2023/09/08 13:46:02;;;;;;;3.10;2.80;;;;;;;;;;4972126;28;20626;-59
2023/09/08 13:48:28;;;;;;;3.17;2.87;;;;;;;;;;4972143;28;20230;-57
2023/09/08 13:50:54;;;;;;;4.67;2.87;;;;;;;;;;4972039;28;20203;-58
2023/09/08 13:53:21;;;;;;;2.87;2.67;;;;;;;;;;4972177;28;20253;-58
2023/09/08 13:55:48;;;;;;;2.80;2.60;;;;;;;;;;4968079;28;20213;-57
2023/09/08 13:58:14;;;;;;;3.43;2.80;;;;;;;;;;4952230;28;20291;-58
2023/09/08 14:00:40;;;;;;;3.23;2.93;;;;;;;;;;4949403;28;20269;-60
2023/09/08 14:03:06;;;;;;;3.33;2.93;;;;;;;;;;4953096;28;20675;-58
2023/09/08 14:05:32;;;;;;;2.70;2.50;;;;;;;;;;4952953;28;20195;-57
2023/09/08 14:07:58;;;;;;;5.27;3.20;;;;;;;;;;4952340;28;20211;-58
2023/09/08 14:10:25;;;;;;;3.13;2.63;;;;;;;;;;4949660;28;20291;-57
2023/09/08 14:12:51;;;;;;;3.37;2.90;;;;;;;;;;4952518;28;20291;-57
2023/09/08 14:15:18;;;;;;;3.10;2.73;;;;;;;;;;4952196;28;20211;-58
2023/09/08 14:17:44;;;;;;;6.03;3.17;;;;;;;;;;4952185;28;20295;-58
2023/09/08 14:20:11;;;;;;;3.83;2.90;;;;;;;;;;4953656;28;20295;-57
2023/09/08 14:22:38;;;;;;;3.23;2.90;;;;;;;;;;4955924;28;20201;-58
2023/09/08 14:25:04;;;;;;;3.90;3.50;;;;;;;;;;4955760;28;20208;-58
2023/09/08 14:27:33;;;;;;;3.60;2.50;;;;;;;;;;4955654;28;20239;-58
2023/09/08 14:29:59;;;;;;;5.10;2.80;;;;;;;;;;4955555;28;20240;-57
2023/09/08 14:32:25;;;;;;;3.50;2.60;;;;;;;;;;4955561;28;20213;-57
2023/09/08 14:34:51;;;;;;;3.00;2.80;;;;;;;;;;4955812;28;20225;-57
2023/09/08 14:37:17;;;;;;;3.40;2.70;;;;;;;;;;4955553;28;20633;-57
2023/09/08 14:39:43;;;;;;;3.07;2.50;;;;;;;;;;4955468;28;20198;-57
2023/09/08 14:42:09;;;;;;;4.47;3.27;;;;;;;;;;4955522;28;20676;-58
2023/09/08 14:44:37;;;;;;;3.77;2.80;;;;;;;;;;4955627;28;20247;-57
2023/09/08 14:47:03;;;;;;;3.07;2.77;;;;;;;;;;4955350;28;20577;-56